Enter the Airport ICAO Code

Search by Airport or City

Current Weather

GCLA | La Palma Airport

La Palma, Canary Islands, Spain

Last Update 21 Minutes Ago

Mostly Cloudy Sky

Temperature of 16 ºC

Moderate Winds from North

Temperature

16 ºC

Dew Point Temperature

08 ºC

Relative Humidity

59.17 %

Wind Direction

North (340º, Ranging from 300º to 030º)

Wind Velocity

19 km/h (10 kt)

Gusts

None

Visibility

Greater than 10 Kilometers

Sea Level Pressure

1025 hPa (Hectopascals)

Layers of Clouds

5% to 30% of Sky Covered from 1158 mts (3800 ft) Above Ground Level.

60% to 90% of Sky Covered from 1798 mts (5900 ft) Above Ground Level.

METAR GCLA 270330Z AUTO 34010KT 300V030 9999 FEW038 BKN059 16/08 Q1025

Weather Forecast

GCLA | La Palma Airport

La Palma, Canary Islands, Spain

Forecast valid for the next 23 Hours

From now on it is expected:

Mostly Cloudy Sky

Moderate Winds from North

In 10 hours it is expected the begining of 6 hours with intermittent periods of:

Moderate to Strong Winds from NorthEast with Gusts

Maximum Temperature

19 ºC in 10 Hours

Minimum Temperature

16 ºC in 3 Hours

TAF GCLA 270200Z 2703/2803 36011KT 9999 BKN045 TX19/2714Z TN16/2707Z PROB30 TEMPO 2714/2720 03017G27KT